Tatiana 1 — 9HA2824 — position and weather

sailwx.info

Track history (hours):
 
Tides and Currents Weather Stations Pressure Air Temp Water Temp Dewpoint Dewpoint Depression Visibility Wind Speed Wind Dir Waves Ship Positions

Tatiana 1

Last reported at 2015-May-27 14:33 UTC. Time now 2015-May-28 03:59 UTC.
Position N 39°06' E 015°08'.

Length 47 m; draft 1.8 m.

Type: Ship. MMSI: 256188000.

Date/timePositionNaut miles runAvg speedWind from/ knotsBaromVisibWave heightAir tempDewpointWater temp
2015-May-27 14:33N 39°06' E 015°08'10 9.7
2015-May-27 13:33N 38°60' E 015°17'10 9.9
2015-May-27 12:30N 38°51' E 015°25'910.0
2015-May-27 11:33N 38°43' E 015°30'10 9.9
2015-May-27 10:33N 38°33' E 015°35'10 9.9
2015-May-27 09:33N 38°24' E 015°39'9 9.0
2015-May-27 08:33N 38°15' E 015°40'8 7.6
2015-May-27 07:33N 38°08' E 015°37'8 7.7
2015-May-27 06:33N 38°00' E 015°36'9 9.3
2015-May-27 05:33N 37°52' E 015°41'12 9.6
2015-May-27 04:20N 37°49' E 015°56'  
2015-May-24 19:15N 38°38' E 024°57'20 9.8
2015-May-24 17:12N 38°55' E 025°09'77 9.6
2015-May-24 09:12N 39°58' E 026°07'9210.4
2015-May-24 00:20N 40°48' E 027°49'1210.4
2015-May-23 23:11N 40°49' E 028°04'710.2
2015-May-23 22:28N 40°50' E 028°14'13 9.9
2015-May-23 21:10N 40°53' E 028°31'1110.3
2015-May-23 20:08N 40°55' E 028°44'610.2
2015-May-23 19:33N 40°56' E 028°52'4 3.4
2015-May-23 18:18N 40°59' E 028°56'0 0.0
2015-May-23 17:24N 40°59' E 028°56'13 2.0
2015-May-23 11:03N 40°57' E 028°39'0 0.0
2015-May-23 10:27N 40°57' E 028°39'  
Track history (hours):
 
Tides and Currents Weather Stations Pressure Air Temp Water Temp Dewpoint Dewpoint Depression Visibility Wind Speed Wind Dir Waves Ship Positions

Tatiana 1

Last reported at 2015-May-27 14:33 UTC. Time now 2015-May-28 03:59 UTC.
Position N 39°06' E 015°08'.

Length 47 m; draft 1.8 m.

Type: Ship. MMSI: 256188000.

Date/timePositionNaut miles runAvg speedWind from/ knotsBaromVisibWave heightAir tempDewpointWater temp
2015-May-27 14:33N 39°06' E 015°08'10 9.7
2015-May-27 13:33N 38°60' E 015°17'10 9.9
2015-May-27 12:30N 38°51' E 015°25'910.0
2015-May-27 11:33N 38°43' E 015°30'10 9.9
2015-May-27 10:33N 38°33' E 015°35'10 9.9
2015-May-27 09:33N 38°24' E 015°39'9 9.0
2015-May-27 08:33N 38°15' E 015°40'8 7.6
2015-May-27 07:33N 38°08' E 015°37'8 7.7
2015-May-27 06:33N 38°00' E 015°36'9 9.3
2015-May-27 05:33N 37°52' E 015°41'12 9.6
2015-May-27 04:20N 37°49' E 015°56'  
2015-May-24 19:15N 38°38' E 024°57'20 9.8
2015-May-24 17:12N 38°55' E 025°09'77 9.6
2015-May-24 09:12N 39°58' E 026°07'9210.4
2015-May-24 00:20N 40°48' E 027°49'1210.4
2015-May-23 23:11N 40°49' E 028°04'710.2
2015-May-23 22:28N 40°50' E 028°14'13 9.9
2015-May-23 21:10N 40°53' E 028°31'1110.3
2015-May-23 20:08N 40°55' E 028°44'610.2
2015-May-23 19:33N 40°56' E 028°52'4 3.4
2015-May-23 18:18N 40°59' E 028°56'0 0.0
2015-May-23 17:24N 40°59' E 028°56'13 2.0
2015-May-23 11:03N 40°57' E 028°39'0 0.0
2015-May-23 10:27N 40°57' E 028°39'  

Dump ship's entire track history